Time;durP1;ratioP1;P1;durP2;ratioP2;P2;SDS_P1;SDS_P2;PMS_P1;PMS_P2;Temp;Humidity;BMP_temperature;BMP_pressure;BME280_temperature;BME280_humidity;BME280_pressure;Samples;Min_cycle;Max_cycle;Signal;HPM_P1;HPM_P2
2023/03/04 00:02:24;;;;;;;2.33;1.52;;;5.30;99.90;;;;;;4964594;28;20035;-80
2023/03/04 00:04:49;;;;;;;2.95;1.40;;;5.20;99.90;;;;;;4964852;28;20439;-78
2023/03/04 00:07:17;;;;;;;2.65;1.38;;;5.20;99.90;;;;;;4964618;28;20042;-78
2023/03/04 00:09:44;;;;;;;2.15;1.27;;;5.20;99.90;;;;;;4981955;28;20464;-79
2023/03/04 00:12:10;;;;;;;2.47;1.40;;;5.20;99.90;;;;;;4964477;28;20030;-79
2023/03/04 00:14:39;;;;;;;2.88;1.15;;;5.20;99.90;;;;;;4981823;28;20085;-79
2023/03/04 00:17:05;;;;;;;2.00;1.50;;;5.20;99.90;;;;;;4964039;28;20030;-80
2023/03/04 00:19:31;;;;;;;1.42;1.10;;;5.20;99.90;;;;;;4964417;28;20030;-78
2023/03/04 00:21:57;;;;;;;1.98;1.10;;;5.10;99.90;;;;;;4981551;28;20027;-78
2023/03/04 00:24:23;;;;;;;1.80;1.35;;;5.10;99.90;;;;;;4964492;28;20139;-78
2023/03/04 00:26:49;;;;;;;2.72;1.80;;;5.00;99.90;;;;;;4981521;28;20102;-78
2023/03/04 00:29:15;;;;;;;2.33;1.55;;;5.10;99.90;;;;;;4981654;28;20051;-79
2023/03/04 00:31:40;;;;;;;2.05;1.25;;;5.00;99.90;;;;;;4960261;28;20484;-79
2023/03/04 00:34:06;;;;;;;2.35;1.38;;;5.00;99.90;;;;;;4972356;28;20098;-78
2023/03/04 00:36:32;;;;;;;2.95;1.50;;;5.00;99.90;;;;;;4964124;28;20058;-77
2023/03/04 00:38:57;;;;;;;1.95;1.30;;;5.00;99.90;;;;;;4964241;28;20122;-77
2023/03/04 00:41:23;;;;;;;3.33;1.60;;;4.90;99.90;;;;;;4963966;28;20042;-77
2023/03/04 00:43:49;;;;;;;2.83;1.52;;;4.90;99.90;;;;;;4981603;28;20031;-77
2023/03/04 00:46:14;;;;;;;2.30;1.50;;;4.90;99.90;;;;;;4981192;28;20143;-77
2023/03/04 00:48:40;;;;;;;3.03;1.60;;;4.90;99.90;;;;;;4978204;28;20399;-77
2023/03/04 00:51:06;;;;;;;2.47;1.40;;;4.90;99.90;;;;;;4981096;28;20428;-77
2023/03/04 00:53:31;;;;;;;2.20;1.50;;;4.90;99.90;;;;;;4981368;28;20091;-77
2023/03/04 00:55:57;;;;;;;2.05;1.58;;;4.90;99.90;;;;;;4980896;28;20102;-76
2023/03/04 00:58:22;;;;;;;2.83;1.50;;;4.90;99.90;;;;;;4981172;28;20033;-77
2023/03/04 01:00:48;;;;;;;2.63;1.40;;;4.90;99.90;;;;;;4963059;28;20435;-77
2023/03/04 01:03:14;;;;;;;1.67;1.42;;;4.90;99.90;;;;;;4963931;28;20059;-77
2023/03/04 01:05:39;;;;;;;2.60;1.40;;;4.90;99.90;;;;;;4963594;28;20514;-76
2023/03/04 01:08:05;;;;;;;2.42;1.50;;;4.90;99.90;;;;;;4981019;28;20023;-76
2023/03/04 01:10:31;;;;;;;2.35;1.58;;;4.90;99.90;;;;;;4963267;28;20029;-76
2023/03/04 01:12:57;;;;;;;2.20;1.40;;;4.80;99.90;;;;;;4980921;28;20027;-76
2023/03/04 01:15:22;;;;;;;1.45;1.35;;;4.80;99.90;;;;;;4980590;28;20127;-75
2023/03/04 01:17:48;;;;;;;2.70;1.50;;;4.80;99.90;;;;;;4980594;28;20518;-76
2023/03/04 01:20:14;;;;;;;2.63;1.42;;;4.80;99.90;;;;;;4980795;28;20035;-76
2023/03/04 01:22:40;;;;;;;2.17;1.42;;;4.80;99.90;;;;;;4963462;28;20122;-76
2023/03/04 01:25:07;;;;;;;2.95;1.73;;;4.80;99.90;;;;;;4963071;28;20058;-76
2023/03/04 01:27:33;;;;;;;2.47;1.50;;;4.70;99.90;;;;;;4980671;28;20049;-77
2023/03/04 01:29:58;;;;;;;2.72;1.63;;;4.70;99.90;;;;;;4980455;28;20027;-77
2023/03/04 01:32:24;;;;;;;2.67;1.67;;;4.70;99.90;;;;;;4970952;28;20038;-75
2023/03/04 01:34:50;;;;;;;2.88;1.73;;;4.70;99.90;;;;;;4960025;28;20058;-76
2023/03/04 01:37:15;;;;;;;3.42;1.58;;;4.70;99.90;;;;;;4963316;28;20026;-76
2023/03/04 01:39:41;;;;;;;3.22;1.55;;;4.70;99.90;;;;;;4980107;28;20026;-75
2023/03/04 01:42:22;;;;;;;2.90;1.95;;;4.70;99.90;;;;;;4963038;28;20039;-75
2023/03/04 01:44:49;;;;;;;2.25;1.73;;;4.70;99.90;;;;;;4963051;28;20023;-77
2023/03/04 01:47:16;;;;;;;2.78;1.98;;;4.70;99.90;;;;;;4960710;28;20082;-77
2023/03/04 01:49:42;;;;;;;2.78;1.65;;;4.70;99.90;;;;;;4978805;28;20517;-76
2023/03/04 01:52:14;;;;;;;2.80;1.45;;;4.70;99.90;;;;;;4980209;28;20109;-76
2023/03/04 01:54:40;;;;;;;2.47;1.55;;;4.70;99.90;;;;;;4962620;28;20034;-77
2023/03/04 01:57:16;;;;;;;1.80;1.58;;;4.70;99.90;;;;;;4980177;28;20058;-76
2023/03/04 01:59:42;;;;;;;2.05;1.42;;;4.80;99.90;;;;;;4962853;28;20026;-77
2023/03/04 02:02:08;;;;;;;1.88;1.15;;;4.80;99.90;;;;;;4979592;28;20042;-78
2023/03/04 02:04:34;;;;;;;3.58;2.00;;;4.80;99.90;;;;;;4980036;28;20023;-77
2023/03/04 02:07:01;;;;;;;3.25;1.83;;;4.80;99.90;;;;;;4979799;28;20033;-77
2023/03/04 02:09:28;;;;;;;3.30;1.77;;;4.80;99.90;;;;;;4979711;28;20102;-77
2023/03/04 02:11:54;;;;;;;2.08;1.80;;;4.80;99.90;;;;;;4978765;28;20023;-76
2023/03/04 02:14:20;;;;;;;2.72;2.00;;;4.80;99.90;;;;;;4979821;28;20037;-77
2023/03/04 02:16:46;;;;;;;2.58;1.75;;;4.80;99.90;;;;;;4962188;28;20049;-77
2023/03/04 02:19:22;;;;;;;3.25;2.05;;;4.80;99.90;;;;;;4979746;28;20035;-78
2023/03/04 02:21:47;;;;;;;2.63;1.75;;;4.70;99.90;;;;;;4979489;28;20491;-78
2023/03/04 02:24:25;;;;;;;5.57;1.80;;;4.70;99.90;;;;;;4979466;28;20029;-78
2023/03/04 02:26:52;;;;;;;3.35;2.15;;;4.70;99.90;;;;;;4961973;28;20026;-77
2023/03/04 02:29:17;;;;;;;3.33;2.00;;;4.80;99.90;;;;;;4979463;28;20019;-78
2023/03/04 02:31:51;;;;;;;3.13;1.85;;;4.80;99.90;;;;;;4957727;29;20511;-78
2023/03/04 02:34:35;;;;;;;2.50;1.90;;;4.80;99.90;;;;;;4971519;28;20034;-78
2023/03/04 02:37:02;;;;;;;3.50;1.90;;;4.80;99.90;;;;;;4961836;28;20030;-78
2023/03/04 02:39:34;;;;;;;2.00;1.67;;;4.80;99.90;;;;;;4978959;28;20097;-78
2023/03/04 02:42:01;;;;;;;2.88;1.90;;;4.80;99.90;;;;;;4979163;28;20054;-78
2023/03/04 02:44:33;;;;;;;3.92;1.77;;;4.70;99.90;;;;;;4961632;28;20046;-78
2023/03/04 02:46:59;;;;;;;3.50;2.20;;;4.70;99.90;;;;;;4961812;28;20022;-78
2023/03/04 02:49:26;;;;;;;2.83;1.95;;;4.60;99.90;;;;;;4961708;28;20479;-77
2023/03/04 02:52:08;;;;;;;3.85;2.30;;;4.60;99.90;;;;;;4979116;28;20027;-77
2023/03/04 02:54:34;;;;;;;2.65;1.77;;;4.50;99.90;;;;;;4978785;28;20413;-77
2023/03/04 02:57:05;;;;;;;2.88;1.90;;;4.50;99.90;;;;;;4979010;28;20030;-77
2023/03/04 02:59:31;;;;;;;3.50;2.22;;;4.50;99.90;;;;;;4978834;28;20106;-77
2023/03/04 03:01:56;;;;;;;2.40;1.88;;;4.50;99.90;;;;;;4978646;28;20506;-77
2023/03/04 03:04:23;;;;;;;2.60;1.92;;;4.50;99.90;;;;;;4978846;28;20554;-78
2023/03/04 03:06:49;;;;;;;2.10;1.73;;;4.40;99.90;;;;;;4978731;28;20061;-78
2023/03/04 03:09:15;;;;;;;2.85;2.00;;;4.40;99.90;;;;;;4978586;28;20026;-78
2023/03/04 03:11:40;;;;;;;5.72;2.08;;;4.40;99.90;;;;;;4978724;28;20023;-78
2023/03/04 03:14:06;;;;;;;3.22;2.20;;;4.40;99.90;;;;;;4961384;28;20538;-78
2023/03/04 03:16:32;;;;;;;2.72;2.08;;;4.40;99.90;;;;;;4961112;28;20058;-78
2023/03/04 03:18:58;;;;;;;2.58;1.95;;;4.40;99.90;;;;;;4978277;28;20039;-78
2023/03/04 03:21:24;;;;;;;3.10;1.95;;;4.40;99.90;;;;;;4978645;28;20058;-78
2023/03/04 03:23:49;;;;;;;3.45;2.45;;;4.30;99.90;;;;;;4978170;28;20030;-78
2023/03/04 03:26:16;;;;;;;3.10;1.90;;;4.40;99.90;;;;;;4978511;28;20098;-78
2023/03/04 03:28:41;;;;;;;2.17;1.98;;;4.40;99.90;;;;;;4978460;28;20522;-78
2023/03/04 03:31:07;;;;;;;2.65;1.90;;;4.30;99.90;;;;;;4978558;28;20022;-78
2023/03/04 03:33:34;;;;;;;4.68;2.30;;;4.30;99.90;;;;;;4948095;28;20031;-78
2023/03/04 03:36:00;;;;;;;2.38;1.85;;;4.30;99.90;;;;;;4978446;28;20073;-78
2023/03/04 03:38:26;;;;;;;2.80;2.00;;;4.30;99.90;;;;;;4960853;28;20117;-77
2023/03/04 03:40:52;;;;;;;3.58;2.10;;;4.30;99.90;;;;;;4978368;28;20034;-77
2023/03/04 03:43:18;;;;;;;2.88;2.00;;;4.30;99.90;;;;;;4960737;28;20123;-77
2023/03/04 03:45:46;;;;;;;4.30;2.60;;;4.30;99.90;;;;;;4978358;28;20175;-79
2023/03/04 03:48:12;;;;;;;2.78;2.13;;;4.30;99.90;;;;;;4960790;28;20030;-79
2023/03/04 03:50:38;;;;;;;2.42;2.00;;;4.30;99.90;;;;;;4961258;28;20027;-79
2023/03/04 03:53:04;;;;;;;3.45;2.08;;;4.30;99.90;;;;;;4978102;28;20034;-78
2023/03/04 03:55:29;;;;;;;2.58;1.90;;;4.30;99.90;;;;;;4978134;28;20038;-76
2023/03/04 03:57:55;;;;;;;2.85;2.05;;;4.30;99.90;;;;;;4978144;28;20031;-76
2023/03/04 04:00:21;;;;;;;2.80;2.00;;;4.30;99.90;;;;;;4961302;28;20163;-78
2023/03/04 04:02:46;;;;;;;7.47;2.17;;;4.30;99.90;;;;;;4977925;28;20026;-79
2023/03/04 04:05:12;;;;;;;2.90;2.22;;;4.30;99.90;;;;;;4978272;28;20026;-79
2023/03/04 04:07:38;;;;;;;3.78;2.53;;;4.20;99.90;;;;;;4978105;28;20023;-78
2023/03/04 04:10:05;;;;;;;2.88;1.95;;;4.20;99.90;;;;;;4960862;28;20034;-79
2023/03/04 04:12:31;;;;;;;2.83;2.30;;;4.20;99.90;;;;;;4961158;28;20607;-79
2023/03/04 04:14:57;;;;;;;3.47;2.35;;;4.20;99.90;;;;;;4978032;28;20114;-79
2023/03/04 04:17:24;;;;;;;2.75;2.15;;;4.10;99.90;;;;;;4960711;28;20023;-78
2023/03/04 04:19:50;;;;;;;5.10;2.55;;;4.10;99.90;;;;;;4977894;28;20364;-78
2023/03/04 04:22:19;;;;;;;3.50;2.20;;;4.10;99.90;;;;;;4969118;28;20169;-77
2023/03/04 04:24:45;;;;;;;3.58;2.38;;;4.00;99.90;;;;;;4941934;28;20023;-76
2023/03/04 04:27:11;;;;;;;3.75;2.60;;;4.00;99.90;;;;;;4962179;28;20083;-76
2023/03/04 04:29:37;;;;;;;3.38;2.38;;;4.00;99.90;;;;;;4957822;28;20432;-75
2023/03/04 04:32:03;;;;;;;4.25;2.70;;;4.00;99.90;;;;;;4940382;29;20027;-76
2023/03/04 04:34:29;;;;;;;3.78;2.30;;;3.90;99.90;;;;;;4954595;28;20105;-76
2023/03/04 04:36:55;;;;;;;4.57;2.92;;;3.90;99.90;;;;;;4981031;28;20055;-75
2023/03/04 04:39:21;;;;;;;4.53;2.75;;;3.90;99.90;;;;;;4981273;28;20030;-77
2023/03/04 04:41:47;;;;;;;3.72;2.35;;;3.80;99.90;;;;;;4981291;28;20357;-78
2023/03/04 04:44:13;;;;;;;3.63;2.67;;;3.80;99.90;;;;;;4981197;28;20045;-78
2023/03/04 04:46:39;;;;;;;4.47;2.40;;;3.80;99.90;;;;;;4963954;28;20459;-78
2023/03/04 04:49:06;;;;;;;4.07;2.70;;;3.80;99.90;;;;;;4977511;28;20383;-77
2023/03/04 04:51:33;;;;;;;3.10;2.33;;;3.80;99.90;;;;;;4981234;28;20503;-78
2023/03/04 04:53:59;;;;;;;5.03;2.70;;;3.80;99.90;;;;;;4964077;28;20029;-77
2023/03/04 04:56:26;;;;;;;3.95;2.55;;;3.80;99.90;;;;;;4981187;28;20023;-79
2023/03/04 04:58:53;;;;;;;5.40;3.33;;;3.70;99.90;;;;;;4963776;28;20118;-79
2023/03/04 05:01:20;;;;;;;3.53;2.25;;;3.80;99.90;;;;;;4963813;28;20141;-77
2023/03/04 05:03:45;;;;;;;2.80;2.22;;;3.80;99.90;;;;;;4980845;28;20054;-77
2023/03/04 05:06:12;;;;;;;3.25;2.38;;;3.70;99.90;;;;;;4964000;28;20028;-78
2023/03/04 05:08:38;;;;;;;5.10;3.00;;;3.70;99.90;;;;;;4980923;28;20423;-76
2023/03/04 05:11:05;;;;;;;4.45;2.33;;;3.70;99.90;;;;;;4963578;28;20026;-76
2023/03/04 05:13:31;;;;;;;4.57;2.60;;;3.70;99.90;;;;;;4963648;28;20029;-77
2023/03/04 05:15:56;;;;;;;3.60;2.30;;;3.70;99.90;;;;;;4980752;28;20059;-77
2023/03/04 05:18:23;;;;;;;3.42;2.53;;;3.70;99.90;;;;;;4963117;28;20063;-77
2023/03/04 05:20:54;;;;;;;3.40;2.47;;;3.70;99.90;;;;;;4980681;28;20038;-78
2023/03/04 05:23:21;;;;;;;3.45;2.28;;;3.70;99.90;;;;;;4980524;28;20027;-78
2023/03/04 05:25:47;;;;;;;3.50;2.58;;;3.60;99.90;;;;;;4980622;28;20023;-78
2023/03/04 05:28:13;;;;;;;4.40;3.05;;;3.60;99.90;;;;;;4980612;28;20026;-78
2023/03/04 05:30:40;;;;;;;4.40;2.80;;;3.40;99.90;;;;;;4963227;28;20017;-78
2023/03/04 06:08:20;;;;;;;3.30;2.15;;;3.40;99.90;;;;;;5038266;28;20159;-79
2023/03/04 06:10:46;;;;;;;4.43;2.42;;;3.30;99.90;;;;;;5011119;28;20486;-79
2023/03/04 06:13:12;;;;;;;2.88;2.05;;;3.20;99.90;;;;;;5011323;28;20125;-79
2023/03/04 06:15:38;;;;;;;3.97;2.13;;;3.30;99.90;;;;;;5011185;28;20442;-79
2023/03/04 06:18:05;;;;;;;3.53;2.45;;;3.40;99.90;;;;;;5011164;28;20062;-79
2023/03/04 06:20:31;;;;;;;3.47;2.33;;;3.40;99.90;;;;;;5011007;28;20033;-78
2023/03/04 06:22:56;;;;;;;3.88;2.53;;;3.40;99.90;;;;;;5011267;28;20030;-78
2023/03/04 06:25:22;;;;;;;4.68;3.20;;;3.40;99.90;;;;;;5011070;28;20082;-79
2023/03/04 06:27:48;;;;;;;4.28;2.90;;;3.40;99.90;;;;;;5010613;28;20398;-78
2023/03/04 06:30:13;;;;;;;5.05;3.30;;;3.40;99.90;;;;;;5019149;28;20034;-78
2023/03/04 06:32:43;;;;;;;4.60;2.85;;;3.40;99.90;;;;;;5010804;28;20026;-78
2023/03/04 06:35:10;;;;;;;3.13;2.60;;;3.40;99.90;;;;;;5029739;28;20057;-79
2023/03/04 06:37:35;;;;;;;4.90;3.17;;;3.40;99.90;;;;;;5029322;28;20493;-80
2023/03/04 06:40:02;;;;;;;4.45;3.33;;;3.40;99.90;;;;;;5020854;28;20049;-79
2023/03/04 06:42:28;;;;;;;4.78;3.28;;;3.50;99.90;;;;;;5010974;28;20026;-80
2023/03/04 06:44:54;;;;;;;4.75;3.47;;;3.40;99.90;;;;;;5009637;28;20689;-79
2023/03/04 06:47:19;;;;;;;4.93;3.65;;;3.50;99.90;;;;;;5007101;28;20451;-78
2023/03/04 06:49:45;;;;;;;5.80;3.45;;;3.40;99.90;;;;;;5009481;28;20038;-78
2023/03/04 06:52:11;;;;;;;5.05;3.65;;;3.50;99.90;;;;;;5009479;28;20034;-78
2023/03/04 06:54:38;;;;;;;4.47;3.25;;;3.50;99.90;;;;;;5010442;28;20034;-78
2023/03/04 06:57:04;;;;;;;5.47;3.05;;;3.50;99.90;;;;;;5010729;28;20041;-77
2023/03/04 06:59:30;;;;;;;3.92;2.75;;;3.40;99.90;;;;;;5009524;28;20041;-77
2023/03/04 07:01:56;;;;;;;5.35;3.10;;;3.30;99.90;;;;;;5009444;28;20026;-78
2023/03/04 07:04:22;;;;;;;3.75;3.00;;;3.20;99.90;;;;;;5009461;28;20033;-78
2023/03/04 07:06:48;;;;;;;5.25;3.35;;;3.30;99.90;;;;;;5009158;28;20089;-78
2023/03/04 07:09:14;;;;;;;4.78;2.92;;;3.30;99.90;;;;;;4996385;28;20034;-78
2023/03/04 07:11:40;;;;;;;4.57;3.25;;;3.30;99.90;;;;;;4997364;28;20037;-78
2023/03/04 07:14:05;;;;;;;4.57;3.40;;;3.30;99.90;;;;;;4997417;28;20030;-78
2023/03/04 07:16:31;;;;;;;4.88;2.90;;;3.20;99.90;;;;;;4997279;28;20117;-78
2023/03/04 07:18:57;;;;;;;5.68;3.70;;;3.20;99.90;;;;;;4996045;28;20037;-78
2023/03/04 07:21:23;;;;;;;4.05;2.90;;;3.20;99.90;;;;;;4997310;28;20029;-77
2023/03/04 07:23:48;;;;;;;4.38;2.70;;;3.20;99.90;;;;;;4997276;28;20387;-77
2023/03/04 07:26:14;;;;;;;4.28;2.80;;;3.20;99.90;;;;;;4996125;28;20045;-77
2023/03/04 07:28:41;;;;;;;5.55;3.72;;;3.30;99.90;;;;;;4996995;28;20027;-78
2023/03/04 07:31:15;;;;;;;5.95;3.70;;;3.30;99.90;;;;;;4996388;28;20098;-78
2023/03/04 07:33:40;;;;;;;4.93;3.50;;;3.30;99.90;;;;;;4977547;28;20019;-78
2023/03/04 07:36:06;;;;;;;3.92;2.80;;;3.40;99.90;;;;;;4977584;28;20038;-78
2023/03/04 07:38:33;;;;;;;4.20;2.75;;;3.40;99.90;;;;;;4976442;28;20027;-78
2023/03/04 07:40:59;;;;;;;4.22;2.95;;;3.50;99.90;;;;;;4977309;28;20031;-78
2023/03/04 07:43:25;;;;;;;4.45;3.30;;;3.50;99.90;;;;;;4976613;28;20038;-76
2023/03/04 07:45:50;;;;;;;4.57;2.92;;;3.50;99.90;;;;;;4977402;28;20059;-76
2023/03/04 07:48:16;;;;;;;4.13;3.25;;;3.60;99.90;;;;;;4980944;28;20031;-76
2023/03/04 07:50:42;;;;;;;5.15;3.10;;;3.60;99.90;;;;;;4977363;28;20479;-76
2023/03/04 07:53:07;;;;;;;5.10;3.30;;;3.50;99.90;;;;;;4977442;28;20380;-77
2023/03/04 07:55:33;;;;;;;3.67;2.92;;;3.50;99.90;;;;;;4977058;28;20415;-77
2023/03/04 07:57:59;;;;;;;5.28;3.42;;;3.60;99.90;;;;;;4977485;28;20526;-77
2023/03/04 08:00:25;;;;;;;5.43;3.42;;;3.60;99.90;;;;;;4977105;28;20027;-78
2023/03/04 08:02:50;;;;;;;4.00;3.03;;;3.70;99.90;;;;;;4977086;28;20113;-79
2023/03/04 08:05:16;;;;;;;4.50;3.40;;;3.70;99.90;;;;;;4977405;28;20065;-81
2023/03/04 08:07:42;;;;;;;5.13;3.60;;;3.70;99.90;;;;;;4975761;28;20054;-81
2023/03/04 08:10:08;;;;;;;6.30;3.55;;;3.80;99.90;;;;;;4975948;28;20079;-81
2023/03/04 08:12:35;;;;;;;5.70;3.45;;;3.80;99.90;;;;;;4977296;28;20065;-81
2023/03/04 08:15:01;;;;;;;5.18;3.85;;;3.90;99.90;;;;;;4977012;28;20038;-79
2023/03/04 08:17:28;;;;;;;5.88;3.50;;;3.90;99.90;;;;;;4976778;28;20038;-78
2023/03/04 08:19:54;;;;;;;5.82;4.15;;;3.80;99.90;;;;;;4974479;28;20141;-78
2023/03/04 08:22:20;;;;;;;5.47;4.15;;;3.80;99.90;;;;;;4977071;28;20059;-78
2023/03/04 08:24:45;;;;;;;7.00;4.95;;;3.80;99.90;;;;;;4975631;28;20053;-78
2023/03/04 08:27:11;;;;;;;6.13;4.55;;;3.80;99.90;;;;;;4975545;28;20027;-79
2023/03/04 08:29:37;;;;;;;6.05;3.80;;;3.80;99.90;;;;;;4975496;28;20035;-78
2023/03/04 08:32:03;;;;;;;5.68;4.05;;;3.80;99.90;;;;;;4983455;28;20440;-78
2023/03/04 08:34:29;;;;;;;6.43;4.40;;;3.80;99.90;;;;;;4981767;28;20022;-78
2023/03/04 08:36:54;;;;;;;4.80;3.60;;;3.80;99.90;;;;;;4975419;28;20023;-77
2023/03/04 08:39:20;;;;;;;6.15;3.58;;;3.90;99.90;;;;;;4974982;28;20027;-78
2023/03/04 08:41:47;;;;;;;5.68;4.10;;;4.00;99.90;;;;;;4976645;28;20029;-78
2023/03/04 08:44:14;;;;;;;4.72;3.55;;;4.00;99.90;;;;;;4976617;28;20089;-78
2023/03/04 08:46:41;;;;;;;4.40;3.50;;;4.10;99.90;;;;;;4974863;28;20376;-78
2023/03/04 08:49:07;;;;;;;6.63;4.20;;;4.10;99.90;;;;;;4979731;28;20027;-78
2023/03/04 08:51:34;;;;;;;5.90;4.18;;;4.10;99.90;;;;;;4976411;28;20112;-79
2023/03/04 08:54:01;;;;;;;4.93;3.85;;;4.20;99.90;;;;;;4976312;28;20042;-79
2023/03/04 08:56:26;;;;;;;6.00;3.90;;;4.30;99.90;;;;;;4976351;28;20038;-77
2023/03/04 08:58:52;;;;;;;5.15;3.75;;;4.30;99.90;;;;;;4976251;28;20027;-79
2023/03/04 09:01:18;;;;;;;4.97;3.67;;;4.30;99.90;;;;;;4976146;28;20027;-79
2023/03/04 09:03:43;;;;;;;5.60;3.22;;;4.40;99.90;;;;;;4974994;28;20075;-79
2023/03/04 09:06:15;;;;;;;4.80;3.33;;;4.40;99.90;;;;;;4976069;28;20080;-81
2023/03/04 09:08:41;;;;;;;4.30;3.20;;;4.50;99.90;;;;;;4975019;28;20035;-78
2023/03/04 09:11:07;;;;;;;5.05;3.38;;;4.50;99.90;;;;;;4976268;28;20042;-80
2023/03/04 09:13:33;;;;;;;5.45;3.50;;;4.60;99.90;;;;;;4974649;28;20034;-79
2023/03/04 09:15:59;;;;;;;5.53;3.40;;;4.70;99.90;;;;;;4976279;28;20031;-78
2023/03/04 09:18:25;;;;;;;3.55;2.75;;;4.70;99.90;;;;;;4974464;28;20027;-78
2023/03/04 09:20:51;;;;;;;4.00;2.83;;;4.80;99.90;;;;;;4976134;28;20057;-81
2023/03/04 09:23:17;;;;;;;6.13;3.00;;;4.90;99.90;;;;;;4974565;28;20042;-80
2023/03/04 09:25:45;;;;;;;3.33;2.30;;;5.00;99.90;;;;;;4975884;28;20057;-81
2023/03/04 09:28:11;;;;;;;3.90;2.40;;;4.90;99.90;;;;;;4975744;28;20034;-82
2023/03/04 09:30:37;;;;;;;3.78;2.42;;;5.00;99.90;;;;;;4974490;28;20031;-84
2023/03/04 09:33:29;;;;;;;2.92;2.30;;;5.10;99.90;;;;;;4987397;28;20076;-83
2023/03/04 09:36:22;;;;;;;2.83;1.77;;;5.10;99.90;;;;;;4975943;28;20459;-85
2023/03/04 09:38:48;;;;;;;2.75;1.85;;;5.20;99.90;;;;;;4985573;28;20035;-71
2023/03/04 09:41:25;;;;;;;3.75;1.80;;;5.30;99.90;;;;;;4980839;28;20507;-77
2023/03/04 09:43:53;;;;;;;2.40;1.77;;;5.40;99.90;;;;;;4975895;28;20023;-69
2023/03/04 09:46:28;;;;;;;3.88;2.45;;;5.50;99.90;;;;;;4975643;28;20096;-70
2023/03/04 09:48:55;;;;;;;4.50;2.83;;;5.50;99.90;;;;;;4979073;28;20054;-69
2023/03/04 09:51:58;;;;;;;4.25;2.65;;;5.50;99.90;;;;;;4975479;28;20035;-69
2023/03/04 09:54:23;;;;;;;3.97;2.95;;;5.50;99.90;;;;;;4975370;28;20031;-68
2023/03/04 09:56:50;;;;;;;4.93;2.80;;;5.60;99.90;;;;;;4985031;28;20041;-68
2023/03/04 09:59:34;;;;;;;4.72;3.05;;;5.60;99.90;;;;;;4995860;28;20091;-69
2023/03/04 10:02:02;;;;;;;;;;;5.60;99.90;;;;;;4988731;28;20030;-73
2023/03/04 10:04:47;;;;;;;4.50;2.30;;;5.60;99.90;;;;;;4994262;28;20306;-72
2023/03/04 10:07:28;;;;;;;3.47;2.08;;;5.60;99.90;;;;;;4985554;28;20065;-71
2023/03/04 10:10:12;;;;;;;2.55;1.90;;;5.70;99.90;;;;;;4983574;28;20050;-70
2023/03/04 10:12:41;;;;;;;4.03;2.00;;;5.70;99.90;;;;;;4992895;28;20110;-67
2023/03/04 10:15:18;;;;;;;3.97;2.30;;;5.80;99.90;;;;;;4990898;28;20095;-67
2023/03/04 10:17:48;;;;;;;2.55;1.80;;;5.80;99.90;;;;;;4994568;28;20105;-70
2023/03/04 10:20:45;;;;;;;3.30;1.85;;;5.80;99.90;;;;;;4992673;28;20027;-72
2023/03/04 10:23:17;;;;;;;3.17;2.05;;;5.90;99.90;;;;;;4992213;28;20031;-70
2023/03/04 10:25:45;;;;;;;3.15;1.85;;;5.90;99.90;;;;;;4983952;28;20038;-73
2023/03/04 10:28:22;;;;;;;3.20;2.33;;;6.00;99.90;;;;;;4974852;28;20015;-70
2023/03/04 10:30:47;;;;;;;3.30;1.88;;;6.00;99.90;;;;;;4975153;28;20031;-68
2023/03/04 10:33:20;;;;;;;3.97;2.03;;;6.10;99.90;;;;;;4986541;28;20030;-67
2023/03/04 10:36:24;;;;;;;3.00;1.98;;;6.10;99.90;;;;;;4981443;28;20031;-67
2023/03/04 10:38:54;;;;;;;1.95;1.58;;;6.20;99.90;;;;;;4985216;28;20505;-68
2023/03/04 10:41:23;;;;;;;2.42;1.55;;;6.30;99.90;;;;;;4974632;28;20059;-68
2023/03/04 10:44:00;;;;;;;1.90;1.50;;;6.40;99.90;;;;;;4981201;28;20055;-70
2023/03/04 10:46:26;;;;;;;3.97;1.95;;;6.40;99.90;;;;;;4987644;28;20081;-68
2023/03/04 10:48:53;;;;;;;2.78;2.08;;;6.40;99.90;;;;;;4980962;28;20027;-68
2023/03/04 10:51:21;;;;;;;2.55;1.88;;;6.60;99.90;;;;;;4985159;28;20034;-70
2023/03/04 10:54:27;;;;;;;2.67;1.95;;;6.70;99.90;;;;;;4989752;28;20076;-69
2023/03/04 10:57:04;;;;;;;3.03;1.90;;;6.80;99.90;;;;;;4991907;28;20397;-70
2023/03/04 10:59:40;;;;;;;4.47;2.17;;;6.90;99.90;;;;;;4985035;28;20026;-71
2023/03/04 11:02:29;;;;;;;3.28;1.73;;;6.80;99.90;;;;;;4997241;28;20030;-72
2023/03/04 11:05:08;;;;;;;2.35;1.65;;;6.80;99.90;;;;;;4996635;28;20027;-76
2023/03/04 11:07:39;;;;;;;2.60;1.80;;;6.80;99.90;;;;;;4986205;28;20053;-77
2023/03/04 11:10:22;;;;;;;3.78;1.88;;;6.90;99.90;;;;;;4996312;28;20034;-75
2023/03/04 11:13:10;;;;;;;4.70;2.00;;;6.90;99.90;;;;;;4995134;28;20031;-76
2023/03/04 11:16:02;;;;;;;2.67;1.88;;;7.10;99.90;;;;;;4987533;28;20034;-70
2023/03/04 11:18:32;;;;;;;3.67;2.00;;;7.20;99.90;;;;;;4982807;28;20041;-69
2023/03/04 11:20:59;;;;;;;3.80;1.80;;;7.30;99.90;;;;;;4989275;28;20033;-69
2023/03/04 11:23:57;;;;;;;2.78;1.85;;;7.40;99.90;;;;;;4995394;28;20087;-67
2023/03/04 11:26:34;;;;;;;3.38;2.25;;;7.50;99.90;;;;;;4978894;28;20039;-72
2023/03/04 11:29:09;;;;;;;3.88;1.90;;;7.50;99.90;;;;;;4986476;28;20030;-70
2023/03/04 11:31:56;;;;;;;2.08;1.60;;;7.40;99.90;;;;;;4992539;28;20406;-70
2023/03/04 11:34:35;;;;;;;4.53;1.75;;;7.30;99.90;;;;;;4986503;28;20525;-72
2023/03/04 11:37:05;;;;;;;4.85;1.90;;;7.40;99.90;;;;;;4977378;28;20042;-72
2023/03/04 11:39:45;;;;;;;4.47;1.80;;;7.40;99.90;;;;;;4976010;28;20030;-73
2023/03/04 11:42:28;;;;;;;5.07;2.10;;;7.50;99.90;;;;;;4981331;28;20031;-73
2023/03/04 11:44:54;;;;;;;3.75;1.98;;;7.50;99.90;;;;;;4988021;28;20030;-73
2023/03/04 11:47:44;;;;;;;3.20;1.80;;;7.60;99.90;;;;;;4993295;28;20398;-77
2023/03/04 11:50:22;;;;;;;3.65;1.83;;;7.70;99.90;;;;;;4987719;28;20034;-70
2023/03/04 11:53:06;;;;;;;3.03;1.60;;;7.70;99.90;;;;;;4989866;28;20027;-76
2023/03/04 11:56:01;;;;;;;2.70;1.40;;;7.80;99.90;;;;;;4987399;28;20022;-79
2023/03/04 11:58:48;;;;;;;4.30;1.67;;;7.90;99.90;;;;;;4988772;28;20060;-69
2023/03/04 12:01:47;;;;;;;2.15;1.30;;;7.90;99.90;;;;;;4986274;28;20065;-74
2023/03/04 12:04:33;;;;;;;1.92;1.30;;;7.90;99.90;;;;;;4978093;28;20037;-77
2023/03/04 12:07:32;;;;;;;2.83;1.67;;;7.90;99.90;;;;;;5008325;28;20054;-72
2023/03/04 12:10:16;;;;;;;2.30;1.48;;;7.90;99.90;;;;;;4976961;28;20560;-74
2023/03/04 12:13:00;;;;;;;3.28;1.42;;;8.00;99.90;;;;;;4978745;28;20035;-69
2023/03/04 12:15:32;;;;;;;;;;;8.10;99.90;;;;;;4979784;28;20058;-71
2023/03/04 12:18:15;;;;;;;2.80;1.15;;;8.10;99.90;;;;;;4992406;28;19910;-73
2023/03/04 12:20:46;;;;;;;2.35;1.40;;;8.10;99.90;;;;;;4976650;28;20550;-72
2023/03/04 12:23:22;;;;;;;2.38;1.58;;;7.90;99.90;;;;;;4975979;28;20022;-73
2023/03/04 12:26:23;;;;;;;4.45;1.55;;;7.90;99.90;;;;;;4987253;28;20075;-75
2023/03/04 12:29:03;;;;;;;1.95;1.38;;;8.00;99.90;;;;;;4986113;28;20058;-72
2023/03/04 12:31:38;;;;;;;2.63;1.35;;;8.00;99.90;;;;;;4987646;28;20084;-69
2023/03/04 12:34:22;;;;;;;3.35;1.60;;;8.00;99.90;;;;;;4984962;28;20018;-71
2023/03/04 12:37:10;;;;;;;3.00;1.00;;;8.00;99.90;;;;;;4977030;28;20092;-70
2023/03/04 12:39:57;;;;;;;3.20;1.42;;;8.10;99.90;;;;;;4975348;28;20030;-74
2023/03/04 12:42:36;;;;;;;1.70;0.98;;;8.10;99.90;;;;;;4976778;28;20025;-69
2023/03/04 12:45:25;;;;;;;5.20;1.73;;;8.10;99.90;;;;;;4989684;28;20072;-72
2023/03/04 12:48:34;;;;;;;3.08;1.35;;;8.10;99.80;;;;;;4985036;28;20541;-71
2023/03/04 12:51:08;;;;;;;1.77;1.17;;;8.10;99.90;;;;;;4988507;28;20128;-69
2023/03/04 12:53:58;;;;;;;2.65;1.42;;;8.10;99.40;;;;;;4989172;28;20041;-70
2023/03/04 12:56:34;;;;;;;1.42;0.90;;;8.10;99.90;;;;;;4995552;28;20022;-68
2023/03/04 12:59:00;;;;;;;2.25;1.15;;;8.20;99.90;;;;;;4978691;28;20031;-68
2023/03/04 13:01:38;;;;;;;2.47;1.40;;;8.30;99.90;;;;;;4974598;28;20029;-69
2023/03/04 13:04:08;;;;;;;2.58;1.25;;;8.20;98.60;;;;;;4974859;28;20031;-70
2023/03/04 13:06:56;;;;;;;3.10;1.42;;;8.20;98.50;;;;;;4975066;28;20086;-70
2023/03/04 13:09:40;;;;;;;3.85;1.45;;;8.30;99.90;;;;;;4975319;28;20038;-68
2023/03/04 13:12:14;;;;;;;;;;;8.30;99.80;;;;;;4976383;28;20510;-68
2023/03/04 13:15:00;;;;;;;;;;;8.30;99.90;;;;;;4974955;28;19906;-67
2023/03/04 13:17:48;;;;;;;1.50;0.90;;;8.30;99.90;;;;;;4975807;28;19932;-68
2023/03/04 13:20:28;;;;;;;2.17;1.08;;;8.30;99.90;;;;;;4976177;28;20462;-68
2023/03/04 13:22:58;;;;;;;1.52;0.85;;;8.40;99.90;;;;;;4976177;28;20024;-68
2023/03/04 13:25:32;;;;;;;1.75;0.98;;;8.40;99.70;;;;;;4975802;28;20458;-68
2023/03/04 13:28:10;;;;;;;2.75;1.42;;;8.40;98.90;;;;;;4976029;28;20110;-68
2023/03/04 13:30:37;;;;;;;2.03;1.05;;;8.40;98.00;;;;;;4975825;28;20038;-68
2023/03/04 13:33:09;;;;;;;3.10;1.40;;;8.40;96.80;;;;;;4987376;28;20026;-68
2023/03/04 13:36:03;;;;;;;1.42;1.05;;;8.40;98.10;;;;;;4975887;28;20114;-68
2023/03/04 13:38:33;;;;;;;1.95;1.20;;;8.40;98.00;;;;;;4977889;28;20031;-68
2023/03/04 13:41:15;;;;;;;3.60;1.80;;;8.50;98.20;;;;;;4985062;28;20022;-68
2023/03/04 13:43:43;;;;;;;2.17;1.27;;;8.40;98.30;;;;;;4981918;28;20448;-68
2023/03/04 13:46:18;;;;;;;4.95;1.88;;;8.40;96.90;;;;;;4982650;28;20048;-68
2023/03/04 13:48:49;;;;;;;2.72;1.63;;;8.40;98.80;;;;;;4981536;28;20474;-68
2023/03/04 13:51:27;;;;;;;2.60;1.80;;;8.40;99.10;;;;;;4978008;28;20023;-68